createdAt,value
2018-12-18T00:00:37.369Z,4.80
2018-12-18T00:03:04.961Z,4.80
2018-12-18T00:05:34.551Z,4.80
2018-12-18T00:08:02.768Z,4.80
2018-12-18T00:10:35.864Z,4.70
2018-12-18T00:13:03.430Z,4.70
2018-12-18T00:15:30.980Z,4.70
2018-12-18T00:17:58.660Z,4.80
2018-12-18T00:20:26.261Z,4.80
2018-12-18T00:22:53.975Z,4.90
2018-12-18T00:25:21.591Z,4.90
2018-12-18T00:27:49.353Z,4.90
2018-12-18T00:30:16.963Z,5.00
2018-12-18T00:32:44.552Z,4.90
2018-12-18T00:35:12.341Z,5.00
2018-12-18T00:37:40.047Z,5.00
2018-12-18T00:40:08.119Z,5.00
2018-12-18T00:42:35.835Z,5.00
2018-12-18T00:45:04.124Z,5.10
2018-12-18T00:47:31.828Z,5.10
2018-12-18T00:49:59.446Z,5.00
2018-12-18T00:52:27.249Z,4.90
2018-12-18T00:54:54.806Z,4.90
2018-12-18T00:57:22.362Z,4.90
2018-12-18T00:59:49.949Z,4.80
2018-12-18T01:02:17.498Z,4.80
2018-12-18T01:04:45.920Z,4.70
2018-12-18T01:07:13.834Z,4.70
2018-12-18T01:09:41.490Z,4.70
2018-12-18T01:12:09.459Z,4.90
2018-12-18T01:14:37.329Z,4.90
2018-12-18T01:17:04.866Z,4.80
2018-12-18T01:19:32.390Z,4.80
2018-12-18T01:22:00.001Z,4.80
2018-12-18T01:24:27.770Z,4.60
2018-12-18T01:26:55.301Z,4.60
2018-12-18T01:29:22.842Z,4.50
2018-12-18T01:31:50.366Z,4.30
2018-12-18T01:34:17.925Z,4.20
2018-12-18T01:36:45.451Z,4.10
2018-12-18T01:39:13.134Z,4.00
2018-12-18T01:41:40.691Z,3.90
2018-12-18T01:44:08.223Z,3.80
2018-12-18T01:46:36.015Z,3.70
2018-12-18T01:49:03.577Z,3.70
2018-12-18T01:51:31.434Z,3.70
2018-12-18T01:53:59.360Z,3.80
2018-12-18T01:56:27.211Z,3.80
2018-12-18T01:58:54.977Z,3.80
2018-12-18T02:01:22.730Z,3.90
2018-12-18T02:03:50.408Z,3.10
2018-12-18T02:06:18.057Z,4.00
2018-12-18T02:08:45.593Z,4.00
2018-12-18T02:11:13.222Z,4.10
2018-12-18T02:13:40.962Z,4.20
2018-12-18T02:16:09.861Z,4.20
2018-12-18T02:18:37.945Z,4.30
2018-12-18T02:21:05.658Z,4.30
2018-12-18T02:23:33.381Z,4.40
2018-12-18T02:26:01.018Z,4.50
2018-12-18T02:28:28.586Z,4.50
2018-12-18T02:30:56.311Z,4.50
2018-12-18T02:33:23.865Z,4.50
2018-12-18T02:35:51.495Z,4.60
2018-12-18T02:38:19.027Z,4.60
2018-12-18T02:40:46.742Z,4.60
2018-12-18T02:43:14.520Z,4.60
2018-12-18T02:45:42.172Z,4.60
2018-12-18T02:48:09.792Z,4.60
2018-12-18T02:50:37.352Z,4.60
2018-12-18T02:53:05.121Z,4.50
2018-12-18T02:55:32.632Z,4.50
2018-12-18T02:58:00.185Z,4.50
2018-12-18T03:00:27.712Z,4.60
2018-12-18T03:02:55.260Z,4.60
2018-12-18T03:05:22.806Z,4.60
2018-12-18T03:07:50.468Z,4.70
2018-12-18T03:10:18.381Z,4.70
2018-12-18T03:12:46.406Z,4.70
2018-12-18T03:15:13.913Z,4.70
2018-12-18T03:17:41.781Z,4.70
2018-12-18T03:20:09.317Z,4.70
2018-12-18T03:22:37.038Z,4.70
2018-12-18T03:25:04.617Z,4.60
2018-12-18T03:27:32.142Z,4.60
2018-12-18T03:30:00.061Z,4.70
2018-12-18T03:32:28.818Z,4.60
2018-12-18T03:34:56.342Z,4.60
2018-12-18T03:37:23.877Z,4.60
2018-12-18T03:39:51.709Z,4.70
2018-12-18T03:42:19.348Z,4.70
2018-12-18T03:44:46.876Z,4.70
2018-12-18T03:47:14.585Z,4.70
2018-12-18T03:49:42.111Z,4.70
2018-12-18T03:52:09.780Z,4.70
2018-12-18T03:54:37.378Z,4.70
2018-12-18T03:57:04.996Z,4.70
2018-12-18T03:59:32.692Z,4.80
2018-12-18T04:02:00.351Z,4.90
2018-12-18T04:04:27.983Z,4.90
2018-12-18T04:06:55.641Z,5.00
2018-12-18T04:09:23.263Z,5.00
2018-12-18T04:11:56.626Z,4.80
2018-12-18T04:14:24.422Z,4.80
2018-12-18T04:16:52.237Z,4.80
2018-12-18T04:19:19.904Z,4.70
2018-12-18T04:21:47.685Z,4.70
2018-12-18T04:24:15.468Z,4.80
2018-12-18T04:26:43.233Z,4.80
2018-12-18T04:29:10.774Z,4.90
2018-12-18T04:31:38.295Z,4.90
2018-12-18T04:34:05.845Z,4.80
2018-12-18T04:36:33.390Z,4.90
2018-12-18T04:39:01.178Z,4.80
2018-12-18T04:41:28.693Z,4.80
2018-12-18T04:43:56.447Z,4.80
2018-12-18T04:46:23.993Z,4.80
2018-12-18T04:48:52.072Z,4.80
2018-12-18T04:51:19.609Z,4.80
2018-12-18T04:53:47.162Z,4.80
2018-12-18T04:56:14.993Z,4.80
2018-12-18T04:58:42.610Z,4.80
2018-12-18T05:01:10.197Z,4.90
2018-12-18T05:03:37.721Z,4.90
2018-12-18T05:06:05.533Z,4.80
2018-12-18T05:08:33.297Z,4.70
2018-12-18T05:11:01.126Z,4.70
2018-12-18T05:13:28.660Z,4.70
2018-12-18T05:15:56.217Z,4.70
2018-12-18T05:18:23.759Z,4.60
2018-12-18T05:20:51.409Z,4.70
2018-12-18T05:23:18.967Z,4.80
2018-12-18T05:25:46.503Z,4.70
2018-12-18T05:28:14.132Z,4.70
2018-12-18T05:30:41.779Z,4.70
2018-12-18T05:33:09.295Z,4.70
2018-12-18T05:35:36.897Z,4.60
2018-12-18T05:38:04.510Z,4.70
2018-12-18T05:40:32.062Z,4.70
2018-12-18T05:42:59.757Z,4.70
2018-12-18T05:45:27.358Z,4.70
2018-12-18T05:47:54.877Z,4.80
2018-12-18T05:50:22.519Z,5.00
2018-12-18T05:52:50.077Z,4.80
2018-12-18T05:55:17.584Z,4.80
2018-12-18T05:57:45.234Z,4.80
2018-12-18T06:00:12.870Z,4.70
2018-12-18T06:02:40.478Z,4.80
2018-12-18T06:05:08.139Z,4.80
2018-12-18T06:07:36.003Z,4.70
2018-12-18T06:10:03.928Z,4.80
2018-12-18T06:12:31.838Z,4.80
2018-12-18T06:14:59.432Z,4.80
2018-12-18T06:17:27.024Z,4.80
2018-12-18T06:19:54.598Z,4.90
2018-12-18T06:22:22.165Z,4.80
2018-12-18T06:24:49.888Z,4.80
2018-12-18T06:27:17.452Z,4.80
2018-12-18T06:29:45.017Z,4.70
2018-12-18T06:32:12.523Z,4.80
2018-12-18T06:34:40.312Z,4.70
2018-12-18T06:37:08.063Z,4.80
2018-12-18T06:39:35.837Z,4.90
2018-12-18T06:42:03.726Z,4.90
2018-12-18T06:44:31.327Z,4.80
2018-12-18T06:46:59.200Z,4.90
2018-12-18T06:49:26.714Z,4.80
2018-12-18T06:51:54.329Z,4.80
2018-12-18T06:54:21.914Z,4.80
2018-12-18T06:56:49.624Z,4.70
2018-12-18T06:59:17.410Z,4.90
2018-12-18T07:01:45.243Z,4.90
2018-12-18T07:04:12.763Z,4.90
2018-12-18T07:06:40.603Z,4.80
2018-12-18T07:09:08.677Z,4.90
2018-12-18T07:11:36.222Z,4.80
2018-12-18T07:14:03.844Z,4.80
2018-12-18T07:16:31.628Z,4.80
2018-12-18T07:18:59.820Z,4.80
2018-12-18T07:21:27.350Z,4.70
2018-12-18T07:23:55.098Z,4.70
2018-12-18T07:26:22.671Z,4.60
2018-12-18T07:28:50.547Z,4.60
2018-12-18T07:31:18.138Z,4.80
2018-12-18T07:33:45.679Z,4.70
2018-12-18T07:36:13.371Z,4.60
2018-12-18T07:38:40.978Z,4.50
2018-12-18T07:41:08.607Z,4.50
2018-12-18T07:43:36.333Z,4.20
2018-12-18T07:46:04.094Z,4.00
2018-12-18T07:48:31.970Z,3.90
2018-12-18T07:50:59.628Z,3.70
2018-12-18T07:53:27.492Z,3.70
2018-12-18T07:56:00.217Z,3.50
2018-12-18T07:58:24.589Z,3.40
2018-12-18T08:00:52.365Z,3.30
2018-12-18T08:03:19.884Z,3.20
2018-12-18T08:05:47.649Z,3.30
2018-12-18T08:08:15.290Z,3.20
2018-12-18T08:10:42.855Z,3.20
2018-12-18T08:13:10.598Z,3.10
2018-12-18T08:15:38.326Z,3.10
2018-12-18T08:18:05.950Z,3.10
2018-12-18T08:20:33.660Z,3.10
2018-12-18T08:23:01.459Z,3.10
2018-12-18T08:25:28.989Z,3.10
2018-12-18T08:27:56.598Z,3.10
2018-12-18T08:30:24.334Z,3.00
2018-12-18T08:32:51.866Z,3.10
2018-12-18T08:35:19.440Z,3.10
2018-12-18T08:37:47.046Z,3.10
2018-12-18T08:40:14.800Z,3.00
2018-12-18T08:42:42.460Z,3.00
2018-12-18T08:45:10.918Z,3.00
2018-12-18T08:47:38.639Z,3.00
2018-12-18T08:50:07.325Z,3.00
2018-12-18T08:52:34.910Z,3.00
2018-12-18T08:55:02.443Z,3.00
2018-12-18T08:57:30.059Z,2.90
2018-12-18T08:59:57.583Z,2.90
2018-12-18T09:02:25.240Z,2.90
2018-12-18T09:04:52.953Z,3.00
2018-12-18T09:07:20.500Z,3.10
2018-12-18T09:09:48.070Z,3.10
2018-12-18T09:12:16.394Z,3.10
2018-12-18T09:14:46.686Z,3.10
2018-12-18T09:17:16.294Z,3.10
2018-12-18T09:19:43.845Z,3.10
2018-12-18T09:22:11.612Z,3.10
2018-12-18T09:24:39.168Z,3.20
2018-12-18T09:27:06.719Z,3.30
2018-12-18T09:29:34.419Z,3.40
2018-12-18T09:32:01.949Z,3.60
2018-12-18T09:34:29.494Z,3.70
2018-12-18T09:36:57.109Z,4.00
2018-12-18T09:39:26.879Z,4.10
2018-12-18T09:41:56.848Z,4.20
2018-12-18T09:44:24.856Z,4.30
2018-12-18T09:46:52.390Z,4.50
2018-12-18T09:49:19.967Z,4.60
2018-12-18T09:51:47.640Z,4.60
2018-12-18T09:54:15.173Z,4.70
2018-12-18T09:56:48.287Z,4.80
2018-12-18T10:01:47.975Z,5.10
2018-12-18T10:04:15.573Z,5.30
2018-12-18T10:06:43.073Z,5.50
2018-12-18T10:09:10.649Z,5.90
2018-12-18T10:11:38.315Z,6.60
2018-12-18T10:14:06.243Z,7.20
2018-12-18T10:16:34.074Z,8.00
2018-12-18T10:19:01.679Z,9.10
2018-12-18T10:21:29.373Z,10.50
2018-12-18T10:23:56.934Z,11.50
2018-12-18T10:26:24.474Z,11.90
2018-12-18T10:28:52.310Z,12.60
2018-12-18T10:31:20.109Z,13.30
2018-12-18T10:33:47.757Z,12.80
2018-12-18T10:36:15.388Z,12.50
2018-12-18T10:38:42.968Z,12.10
2018-12-18T10:41:10.726Z,12.40
2018-12-18T10:43:38.413Z,12.10
2018-12-18T10:46:06.046Z,11.90
2018-12-18T10:48:33.602Z,11.30
2018-12-18T10:51:01.591Z,10.90
2018-12-18T10:53:29.159Z,10.80
2018-12-18T10:55:56.724Z,11.10
2018-12-18T10:58:24.410Z,11.30
2018-12-18T11:00:57.798Z,11.20
2018-12-18T11:03:25.335Z,11.40
2018-12-18T11:05:52.958Z,11.30
2018-12-18T11:08:20.479Z,11.40
2018-12-18T11:10:48.277Z,11.80
2018-12-18T11:13:16.728Z,12.20
2018-12-18T11:15:44.752Z,11.60
2018-12-18T11:18:12.280Z,11.30
2018-12-18T11:20:40.048Z,11.10
2018-12-18T11:23:07.746Z,10.40
2018-12-18T11:25:35.289Z,9.80
2018-12-18T11:28:03.445Z,9.20
2018-12-18T11:30:31.258Z,9.20
2018-12-18T11:32:58.925Z,8.80
2018-12-18T11:35:26.428Z,8.60
2018-12-18T11:37:54.498Z,8.20
2018-12-18T11:40:22.105Z,7.90
2018-12-18T11:42:49.635Z,7.70
2018-12-18T11:45:17.199Z,7.80
2018-12-18T11:47:44.925Z,7.90
2018-12-18T11:50:12.544Z,7.70
2018-12-18T11:52:40.098Z,7.80
2018-12-18T11:55:07.728Z,7.70
2018-12-18T11:57:35.388Z,7.60
2018-12-18T12:00:03.324Z,7.60
2018-12-18T12:02:30.833Z,7.50
2018-12-18T12:04:58.860Z,7.50
2018-12-18T12:07:26.451Z,7.60
2018-12-18T12:09:54.147Z,7.50
2018-12-18T12:12:21.707Z,7.40
2018-12-18T12:14:49.737Z,7.40
2018-12-18T12:17:17.554Z,7.10
2018-12-18T12:19:45.078Z,7.20
2018-12-18T12:22:12.624Z,7.20
2018-12-18T12:24:40.493Z,7.10
2018-12-18T12:27:13.590Z,7.20
2018-12-18T12:29:41.224Z,7.30
2018-12-18T12:32:08.954Z,7.60
2018-12-18T12:34:36.758Z,7.70
2018-12-18T12:37:04.407Z,8.20
2018-12-18T12:39:31.974Z,8.60
2018-12-18T12:41:59.648Z,8.90
2018-12-18T12:44:27.394Z,9.40
2018-12-18T12:46:55.162Z,9.50
2018-12-18T12:49:25.026Z,9.40
2018-12-18T12:51:52.583Z,9.40
2018-12-18T12:54:20.270Z,9.10
2018-12-18T12:56:47.827Z,9.10
2018-12-18T12:59:15.324Z,8.90
2018-12-18T13:01:43.098Z,8.70
2018-12-18T13:04:10.698Z,8.60
2018-12-18T13:06:38.443Z,8.80
2018-12-18T13:09:06.954Z,8.80
2018-12-18T13:11:35.279Z,8.60
2018-12-18T13:14:03.208Z,8.70
2018-12-18T13:16:30.783Z,8.80
2018-12-18T13:18:58.323Z,8.80
2018-12-18T13:21:25.893Z,8.60
2018-12-18T13:23:53.444Z,8.20
2018-12-18T13:26:21.152Z,8.10
2018-12-18T13:28:48.869Z,8.20
2018-12-18T13:31:17.332Z,8.10
2018-12-18T13:33:45.203Z,8.00
2018-12-18T13:36:12.736Z,7.80
2018-12-18T13:38:40.668Z,7.70
2018-12-18T13:41:08.276Z,7.80
2018-12-18T13:43:35.802Z,7.80
2018-12-18T13:46:04.227Z,8.00
2018-12-18T13:48:32.058Z,7.70
2018-12-18T13:51:00.112Z,7.40
2018-12-18T13:53:27.668Z,7.40
2018-12-18T13:55:55.212Z,7.30
2018-12-18T13:58:23.107Z,7.30
2018-12-18T14:00:50.662Z,7.40
2018-12-18T14:03:18.353Z,7.40
2018-12-18T14:05:45.923Z,7.20
2018-12-18T14:08:13.443Z,7.00
2018-12-18T14:10:41.044Z,7.00
2018-12-18T14:13:08.618Z,6.80
2018-12-18T14:15:36.256Z,6.70
2018-12-18T14:18:04.020Z,6.60
2018-12-18T14:20:31.633Z,6.60
2018-12-18T14:22:59.311Z,6.60
2018-12-18T14:25:26.899Z,6.50
2018-12-18T14:27:54.743Z,6.40
2018-12-18T14:30:22.278Z,6.40
2018-12-18T14:32:49.861Z,6.30
2018-12-18T14:35:17.428Z,6.20
2018-12-18T14:37:45.152Z,6.10
2018-12-18T14:40:12.728Z,6.10
2018-12-18T14:42:40.543Z,6.00
2018-12-18T14:45:08.099Z,6.00
2018-12-18T14:47:35.646Z,5.80
2018-12-18T14:50:04.717Z,5.60
2018-12-18T14:52:32.275Z,5.40
2018-12-18T14:54:59.831Z,5.20
2018-12-18T14:57:27.479Z,5.00
2018-12-18T14:59:55.242Z,4.90
2018-12-18T15:02:22.771Z,4.80
2018-12-18T15:04:50.575Z,4.70
2018-12-18T15:07:18.284Z,4.60
2018-12-18T15:09:45.884Z,4.50
2018-12-18T15:12:13.834Z,4.50
2018-12-18T15:14:41.410Z,4.30
2018-12-18T15:17:09.421Z,4.20
2018-12-18T15:19:37.261Z,4.00
2018-12-18T15:22:04.829Z,3.90
2018-12-18T15:24:36.457Z,3.90
2018-12-18T15:27:03.989Z,3.70
2018-12-18T15:29:31.822Z,3.70
2018-12-18T15:31:59.703Z,3.60
2018-12-18T15:34:27.363Z,3.50
2018-12-18T15:36:55.181Z,3.50
2018-12-18T15:39:22.732Z,3.60
2018-12-18T15:41:50.275Z,3.60
2018-12-18T15:44:18.084Z,3.50
2018-12-18T15:46:45.842Z,3.30
2018-12-18T15:49:13.374Z,3.30
2018-12-18T15:51:40.972Z,3.20
2018-12-18T15:54:08.509Z,3.20
2018-12-18T15:56:36.279Z,3.10
2018-12-18T15:59:03.838Z,3.10
2018-12-18T16:01:31.350Z,3.00
2018-12-18T16:03:59.068Z,3.00
2018-12-18T16:06:26.638Z,3.20
2018-12-18T16:08:54.275Z,3.20
2018-12-18T16:11:21.909Z,3.10
2018-12-18T16:13:49.674Z,3.00
2018-12-18T16:16:17.629Z,3.10
2018-12-18T16:18:45.281Z,3.10
2018-12-18T16:21:12.849Z,3.00
2018-12-18T16:23:40.409Z,2.90
2018-12-18T16:26:08.147Z,2.90
2018-12-18T16:28:35.690Z,2.80
2018-12-18T16:31:03.460Z,2.80
2018-12-18T16:33:31.274Z,2.80
2018-12-18T16:35:59.150Z,2.70
2018-12-18T16:38:26.694Z,2.60
2018-12-18T16:40:54.303Z,2.50
2018-12-18T16:43:22.110Z,2.40
2018-12-18T16:45:51.669Z,2.40
2018-12-18T16:48:19.266Z,2.40
2018-12-18T16:50:46.800Z,2.30
2018-12-18T16:53:14.405Z,2.30
2018-12-18T16:55:42.463Z,2.30
2018-12-18T16:58:10.277Z,2.20
2018-12-18T17:00:37.968Z,2.10
2018-12-18T17:03:05.545Z,2.10
2018-12-18T17:05:33.103Z,2.10
2018-12-18T17:08:00.695Z,2.00
2018-12-18T17:10:28.249Z,2.10
2018-12-18T17:12:56.308Z,2.10
2018-12-18T17:15:23.964Z,2.00
2018-12-18T17:17:51.615Z,2.00
2018-12-18T17:20:19.622Z,1.90
2018-12-18T17:22:47.291Z,2.10
2018-12-18T17:25:14.901Z,2.10
2018-12-18T17:27:42.765Z,2.10
2018-12-18T17:30:10.552Z,2.20
2018-12-18T17:32:38.388Z,2.20
2018-12-18T17:35:05.946Z,2.20
2018-12-18T17:37:36.332Z,2.40
2018-12-18T17:40:03.925Z,2.30
2018-12-18T17:42:31.439Z,2.30
2018-12-18T17:44:59.190Z,2.40
2018-12-18T17:47:27.031Z,2.40
2018-12-18T17:49:54.559Z,2.40
2018-12-18T17:52:22.330Z,2.30
2018-12-18T17:54:49.872Z,2.30
2018-12-18T17:57:17.425Z,2.20
2018-12-18T17:59:44.967Z,2.10
2018-12-18T18:02:12.528Z,2.10
2018-12-18T18:04:40.266Z,2.10
2018-12-18T18:07:07.904Z,2.10
2018-12-18T18:09:35.735Z,2.00
2018-12-18T18:12:03.465Z,2.00
2018-12-18T18:14:31.116Z,2.10
2018-12-18T18:16:58.854Z,2.00
2018-12-18T18:19:26.391Z,2.00
2018-12-18T18:21:53.909Z,2.10
2018-12-18T18:24:21.493Z,2.00
2018-12-18T18:26:49.215Z,2.10
2018-12-18T18:29:17.196Z,2.00
2018-12-18T18:31:44.735Z,2.10
2018-12-18T18:34:12.663Z,2.10
2018-12-18T18:36:40.256Z,2.10
2018-12-18T18:39:07.811Z,2.00
2018-12-18T18:41:35.352Z,2.00
2018-12-18T18:44:03.344Z,2.10
2018-12-18T18:46:31.066Z,2.10
2018-12-18T18:48:58.931Z,2.10
2018-12-18T18:51:26.549Z,2.20
2018-12-18T18:53:54.096Z,2.30
2018-12-18T18:56:21.883Z,2.60
2018-12-18T18:58:49.660Z,2.60
2018-12-18T19:01:17.397Z,2.50
2018-12-18T19:03:45.050Z,2.60
2018-12-18T19:06:12.910Z,2.60
2018-12-18T19:08:40.574Z,2.60
2018-12-18T19:11:08.310Z,2.60
2018-12-18T19:13:35.856Z,2.70
2018-12-18T19:16:03.405Z,2.80
2018-12-18T19:18:31.413Z,2.90
2018-12-18T19:20:59.159Z,2.90
2018-12-18T19:23:26.997Z,2.90
2018-12-18T19:25:54.687Z,2.80
2018-12-18T19:28:22.336Z,3.00
2018-12-18T19:30:49.940Z,3.00
2018-12-18T19:33:17.883Z,3.00
2018-12-18T19:35:45.441Z,3.10
2018-12-18T19:38:12.988Z,2.90
2018-12-18T19:40:40.851Z,2.90
2018-12-18T19:43:08.471Z,3.00
2018-12-18T19:45:36.085Z,3.10
2018-12-18T19:48:04.035Z,3.20
2018-12-18T19:50:31.601Z,3.30
2018-12-18T19:52:59.810Z,3.20
2018-12-18T19:55:27.390Z,3.20
2018-12-18T19:57:55.001Z,3.30
2018-12-18T20:00:22.606Z,3.40
2018-12-18T20:02:50.160Z,3.30
2018-12-18T20:05:17.866Z,3.20
2018-12-18T20:07:45.622Z,3.30
2018-12-18T20:10:13.214Z,3.20
2018-12-18T20:12:40.965Z,3.00
2018-12-18T20:15:08.563Z,2.90
2018-12-18T20:17:36.295Z,2.80
2018-12-18T20:20:06.556Z,2.70
2018-12-18T20:22:34.096Z,2.80
2018-12-18T20:25:01.972Z,2.70
2018-12-18T20:27:29.736Z,2.90
2018-12-18T20:29:57.824Z,2.80
2018-12-18T20:32:25.737Z,2.70
2018-12-18T20:34:53.305Z,2.60
2018-12-18T20:37:20.892Z,2.60
2018-12-18T20:39:48.430Z,2.70
2018-12-18T20:42:15.971Z,2.60
2018-12-18T20:44:43.537Z,2.60
2018-12-18T20:47:11.227Z,2.80
2018-12-18T20:49:39.079Z,3.10
2018-12-18T20:52:06.646Z,3.20
2018-12-18T20:54:34.423Z,3.60
2018-12-18T20:57:01.964Z,3.50
2018-12-18T20:59:29.532Z,3.80
2018-12-18T21:01:57.312Z,3.80
2018-12-18T21:04:24.846Z,3.50
2018-12-18T21:06:52.876Z,3.60
2018-12-18T21:09:20.401Z,3.50
2018-12-18T21:11:48.123Z,3.30
2018-12-18T21:14:15.666Z,3.20
2018-12-18T21:16:43.616Z,3.10
2018-12-18T21:19:11.204Z,2.90
2018-12-18T21:21:38.766Z,3.00
2018-12-18T21:24:06.293Z,2.90
2018-12-18T21:26:33.846Z,2.70
2018-12-18T21:29:01.779Z,2.60
2018-12-18T21:31:29.461Z,2.60
2018-12-18T21:33:57.496Z,2.50
2018-12-18T21:36:25.049Z,2.60
2018-12-18T21:38:52.646Z,3.00
2018-12-18T21:41:20.190Z,2.90
2018-12-18T21:43:47.859Z,2.90
2018-12-18T21:46:15.422Z,2.70
2018-12-18T21:48:43.213Z,2.80
2018-12-18T21:51:10.874Z,2.80
2018-12-18T21:53:38.620Z,2.70
2018-12-18T21:56:06.175Z,2.80
2018-12-18T21:58:33.854Z,3.10
2018-12-18T22:01:01.794Z,3.00
2018-12-18T22:03:29.500Z,2.90
2018-12-18T22:05:57.059Z,2.70
2018-12-18T22:08:24.920Z,2.70
2018-12-18T22:10:52.634Z,2.60
2018-12-18T22:13:20.165Z,2.60
2018-12-18T22:15:47.801Z,2.60
2018-12-18T22:18:15.464Z,2.50
2018-12-18T22:20:43.530Z,2.40
2018-12-18T22:23:11.322Z,2.30
2018-12-18T22:25:39.175Z,2.70
2018-12-18T22:28:06.934Z,2.60
2018-12-18T22:30:34.474Z,2.80
2018-12-18T22:33:02.017Z,2.70
2018-12-18T22:35:29.547Z,2.70
2018-12-18T22:37:57.212Z,2.70
2018-12-18T22:40:24.715Z,2.80
2018-12-18T22:42:52.910Z,2.60
2018-12-18T22:45:20.441Z,2.50
2018-12-18T22:47:48.214Z,2.40
2018-12-18T22:50:15.934Z,2.40
2018-12-18T22:52:43.729Z,2.70
2018-12-18T22:55:11.273Z,2.70
2018-12-18T22:57:39.038Z,2.70
2018-12-18T23:00:08.690Z,2.60
2018-12-18T23:02:36.305Z,2.40
2018-12-18T23:05:04.605Z,2.30
2018-12-18T23:07:32.270Z,2.40
2018-12-18T23:09:59.812Z,2.50
2018-12-18T23:12:27.656Z,2.80
2018-12-18T23:14:55.440Z,2.90
2018-12-18T23:17:22.975Z,2.90
2018-12-18T23:19:50.687Z,3.00
2018-12-18T23:22:18.332Z,3.00
2018-12-18T23:24:45.952Z,2.90
2018-12-18T23:27:13.879Z,3.00
2018-12-18T23:29:41.536Z,3.10
2018-12-18T23:32:09.201Z,2.90
2018-12-18T23:34:36.755Z,2.80
2018-12-18T23:37:04.384Z,2.60
2018-12-18T23:39:31.930Z,2.80
2018-12-18T23:41:59.552Z,2.70
2018-12-18T23:44:27.202Z,2.60
2018-12-18T23:46:54.743Z,2.70
2018-12-18T23:49:22.402Z,2.90
2018-12-18T23:51:49.941Z,2.90
2018-12-18T23:54:17.474Z,3.00
2018-12-18T23:56:44.995Z,2.90
2018-12-18T23:59:12.709Z,3.00
